createdAt,value
2017-02-01T00:00:44.352Z,1013.52
2017-02-01T00:01:54.631Z,1013.53
2017-02-01T00:03:04.878Z,1013.51
2017-02-01T00:04:15.123Z,1013.47
2017-02-01T00:05:25.636Z,1013.47
2017-02-01T00:06:36.274Z,1013.48
2017-02-01T00:07:46.126Z,1013.45
2017-02-01T00:08:56.359Z,1013.47
2017-02-01T00:10:06.213Z,1013.46
2017-02-01T00:11:15.940Z,1013.44
2017-02-01T00:12:26.571Z,1013.48
2017-02-01T00:13:37.208Z,1013.49
2017-02-01T00:14:47.451Z,1013.44
2017-02-01T00:15:57.697Z,1013.46
2017-02-01T00:17:08.190Z,1013.45
2017-02-01T00:18:18.823Z,1013.45
2017-02-01T00:19:29.056Z,1013.42
2017-02-01T00:20:39.294Z,1013.4
2017-02-01T00:21:49.529Z,1013.41
2017-02-01T00:23:00.318Z,1013.4
2017-02-01T00:24:10.559Z,1013.41
2017-02-01T00:25:20.821Z,1013.39
2017-02-01T00:26:30.669Z,1013.42
2017-02-01T00:27:41.314Z,1013.41
2017-02-01T00:28:52.203Z,1013.44
2017-02-01T00:30:01.657Z,1013.41
2017-02-01T00:31:12.280Z,1013.43
2017-02-01T00:32:22.534Z,1013.37
2017-02-01T00:33:32.787Z,1013.42
2017-02-01T00:34:42.915Z,1013.41
2017-02-01T00:35:53.167Z,1013.42
2017-02-01T00:37:03.017Z,1013.41
2017-02-01T00:38:12.484Z,1013.44
2017-02-01T00:39:22.730Z,1013.4
2017-02-01T00:40:33.637Z,1013.4
2017-02-01T00:41:43.100Z,1013.42
2017-02-01T00:42:53.351Z,1013.41
2017-02-01T00:44:03.206Z,1013.37
2017-02-01T00:45:13.833Z,1013.41
2017-02-01T00:46:24.732Z,1013.4
2017-02-01T00:47:35.359Z,1013.42
2017-02-01T00:48:45.219Z,1013.4
2017-02-01T00:49:55.463Z,1013.41
2017-02-01T00:51:06.093Z,1013.39
2017-02-01T00:52:16.606Z,1013.39
2017-02-01T00:53:27.227Z,1013.37
2017-02-01T00:54:37.464Z,1013.39
2017-02-01T00:55:48.093Z,1013.37
2017-02-01T00:56:58.729Z,1013.33
2017-02-01T00:58:08.831Z,1013.34
2017-02-01T00:59:19.077Z,1013.32
2017-02-01T01:00:28.553Z,1013.33
2017-02-01T01:01:39.185Z,1013.28
2017-02-01T01:02:49.807Z,1013.23
2017-02-01T01:04:00.354Z,1013.29
2017-02-01T01:05:10.982Z,1013.3
2017-02-01T01:06:21.608Z,1013.26
2017-02-01T01:07:31.853Z,1013.23
2017-02-01T01:08:42.504Z,1013.27
2017-02-01T01:09:53.396Z,1013.31
2017-02-01T01:11:03.638Z,1013.26
2017-02-01T01:12:13.895Z,1013.28
2017-02-01T01:13:23.369Z,1013.24
2017-02-01T01:14:33.991Z,1013.3
2017-02-01T01:15:44.866Z,1013.27
2017-02-01T01:16:54.712Z,1013.26
2017-02-01T01:18:05.344Z,1013.27
2017-02-01T01:19:14.811Z,1013.26
2017-02-01T01:20:25.048Z,1013.24
2017-02-01T01:21:35.929Z,1013.26
2017-02-01T01:22:46.183Z,1013.22
2017-02-01T01:23:56.438Z,1013.21
2017-02-01T01:25:07.088Z,1013.24
2017-02-01T01:26:16.937Z,1013.23
2017-02-01T01:27:27.425Z,1013.17
2017-02-01T01:28:38.064Z,1013.23
2017-02-01T01:29:48.316Z,1013.16
2017-02-01T01:30:58.559Z,1013.2
2017-02-01T01:32:09.191Z,1013.2
2017-02-01T01:33:18.909Z,1013.2
2017-02-01T01:34:28.758Z,1013.23
2017-02-01T01:35:38.987Z,1013.2
2017-02-01T01:36:49.619Z,1013.25
2017-02-01T01:37:59.486Z,1013.22
2017-02-01T01:39:09.193Z,1013.24
2017-02-01T01:40:19.428Z,1013.27
2017-02-01T01:41:30.089Z,1013.27
2017-02-01T01:42:40.346Z,1013.25
2017-02-01T01:43:50.200Z,1013.21
2017-02-01T01:45:00.698Z,1013.21
2017-02-01T01:46:10.942Z,1013.25
2017-02-01T01:47:21.189Z,1013.24
2017-02-01T01:48:31.829Z,1013.27
2017-02-01T01:49:42.495Z,1013.2
2017-02-01T01:50:53.372Z,1013.23
2017-02-01T01:52:04.012Z,1013.21
2017-02-01T01:53:14.260Z,1013.23
2017-02-01T01:54:24.101Z,1013.24
2017-02-01T01:55:34.740Z,1013.23
2017-02-01T01:56:44.896Z,1013.28
2017-02-01T01:57:54.763Z,1013.27
2017-02-01T01:59:05.012Z,1013.27
2017-02-01T02:00:14.857Z,1013.29
2017-02-01T02:01:25.117Z,1013.28
2017-02-01T02:02:35.656Z,1013.3
2017-02-01T02:03:45.886Z,1013.26
2017-02-01T02:04:56.831Z,1013.29
2017-02-01T02:06:07.457Z,1013.28
2017-02-01T02:07:17.727Z,1013.3
2017-02-01T02:08:28.609Z,1013.32
2017-02-01T02:09:39.238Z,1013.28
2017-02-01T02:10:49.868Z,1013.28
2017-02-01T02:12:00.103Z,1013.27
2017-02-01T02:13:10.357Z,1013.26
2017-02-01T02:14:20.846Z,1013.22
2017-02-01T02:15:31.092Z,1013.24
2017-02-01T02:16:41.733Z,1013.17
2017-02-01T02:17:51.612Z,1013.21
2017-02-01T02:19:01.854Z,1013.18
2017-02-01T02:20:11.961Z,1013.22
2017-02-01T02:21:22.198Z,1013.21
2017-02-01T02:22:32.818Z,1013.19
2017-02-01T02:23:42.270Z,1013.22
2017-02-01T02:24:52.894Z,1013.22
2017-02-01T02:26:03.781Z,1013.21
2017-02-01T02:27:14.043Z,1013.18
2017-02-01T02:28:24.685Z,1013.19
2017-02-01T02:29:35.313Z,1013.21
2017-02-01T02:30:45.940Z,1013.2
2017-02-01T02:31:56.779Z,1013.19
2017-02-01T02:33:06.281Z,1013.19
2017-02-01T02:34:16.523Z,1013.17
2017-02-01T02:35:27.154Z,1013.18
2017-02-01T02:36:37.790Z,1013.15
2017-02-01T02:37:48.311Z,1013.14
2017-02-01T02:38:58.950Z,1013.18
2017-02-01T02:40:09.595Z,1013.15
2017-02-01T02:41:19.837Z,1013.11
2017-02-01T02:42:30.463Z,1013.12
2017-02-01T02:43:41.337Z,1013.1
2017-02-01T02:44:51.193Z,1013.12
2017-02-01T02:46:00.664Z,1013.05
2017-02-01T02:47:10.522Z,1013.12
2017-02-01T02:48:21.157Z,1013.06
2017-02-01T02:49:31.653Z,1013.09
2017-02-01T02:50:41.896Z,1013.09
2017-02-01T02:51:52.146Z,1013.08
2017-02-01T02:53:02.387Z,1013.04
2017-02-01T02:54:13.025Z,1013.01
2017-02-01T02:55:23.954Z,1012.99
2017-02-01T02:56:33.805Z,1013.05
2017-02-01T02:57:43.281Z,1013.05
2017-02-01T02:58:53.972Z,1013.01
2017-02-01T03:00:04.218Z,1013.06
2017-02-01T03:01:14.667Z,1013.05
2017-02-01T03:02:24.924Z,1013.04
2017-02-01T03:03:34.408Z,1013.02
2017-02-01T03:04:45.052Z,1012.95
2017-02-01T03:05:55.692Z,1012.98
2017-02-01T03:07:06.582Z,1012.92
2017-02-01T03:08:17.217Z,1012.96
2017-02-01T03:09:27.848Z,1012.91
2017-02-01T03:10:37.688Z,1012.88
2017-02-01T03:11:47.938Z,1012.86
2017-02-01T03:12:58.038Z,1012.86
2017-02-01T03:14:07.895Z,1012.84
2017-02-01T03:15:17.751Z,1012.87
2017-02-01T03:16:28.375Z,1012.85
2017-02-01T03:17:38.689Z,1012.9
2017-02-01T03:18:49.197Z,1012.88
2017-02-01T03:19:59.045Z,1012.91
2017-02-01T03:21:09.291Z,1012.89
2017-02-01T03:22:19.923Z,1012.91
2017-02-01T03:23:30.583Z,1012.92
2017-02-01T03:24:40.686Z,1012.93
2017-02-01T03:25:50.940Z,1012.92
2017-02-01T03:27:01.186Z,1012.9
2017-02-01T03:28:11.825Z,1012.87
2017-02-01T03:29:22.112Z,1012.91
2017-02-01T03:30:32.996Z,1012.84
2017-02-01T03:31:43.629Z,1012.87
2017-02-01T03:32:53.489Z,1012.92
2017-02-01T03:34:03.368Z,1012.93
2017-02-01T03:35:14.003Z,1012.9
2017-02-01T03:36:25.023Z,1012.9
2017-02-01T03:37:35.647Z,1012.9
2017-02-01T03:38:45.523Z,1012.86
2017-02-01T03:39:56.165Z,1012.89
2017-02-01T03:41:06.033Z,1012.85
2017-02-01T03:42:16.918Z,1012.87
2017-02-01T03:43:27.552Z,1012.86
2017-02-01T03:44:37.811Z,1012.86
2017-02-01T03:45:48.462Z,1012.82
2017-02-01T03:46:58.324Z,1012.84
2017-02-01T03:48:08.034Z,1012.84
2017-02-01T03:49:17.878Z,1012.83
2017-02-01T03:50:28.506Z,1012.83
2017-02-01T03:51:38.741Z,1012.82
2017-02-01T03:52:49.374Z,1012.84
2017-02-01T03:53:59.486Z,1012.78
2017-02-01T03:55:09.743Z,1012.83
2017-02-01T03:56:20.370Z,1012.76
2017-02-01T03:57:31.005Z,1012.8
2017-02-01T03:58:41.257Z,1012.76
2017-02-01T03:59:52.137Z,1012.75
2017-02-01T04:01:02.380Z,1012.77
2017-02-01T04:02:13.038Z,1012.71
2017-02-01T04:03:23.706Z,1012.67
2017-02-01T04:04:34.378Z,1012.71
2017-02-01T04:05:44.487Z,1012.68
2017-02-01T04:06:55.115Z,1012.67
2017-02-01T04:08:05.745Z,1012.69
2017-02-01T04:09:16.383Z,1012.67
2017-02-01T04:10:27.041Z,1012.7
2017-02-01T04:11:37.153Z,1012.67
2017-02-01T04:12:47.405Z,1012.65
2017-02-01T04:13:57.642Z,1012.69
2017-02-01T04:15:07.891Z,1012.66
2017-02-01T04:16:18.126Z,1012.7
2017-02-01T04:17:28.233Z,1012.66
2017-02-01T04:18:38.106Z,1012.66
2017-02-01T04:19:48.351Z,1012.67
2017-02-01T04:20:58.594Z,1012.66
2017-02-01T04:22:08.839Z,1012.67
2017-02-01T04:23:18.885Z,1012.68
2017-02-01T04:24:29.120Z,1012.64
2017-02-01T04:25:39.377Z,1012.63
2017-02-01T04:26:49.659Z,1012.64
2017-02-01T04:28:00.292Z,1012.66
2017-02-01T04:29:10.786Z,1012.62
2017-02-01T04:30:21.416Z,1012.65
2017-02-01T04:31:31.267Z,1012.66
2017-02-01T04:32:41.892Z,1012.68
2017-02-01T04:33:52.525Z,1012.68
2017-02-01T04:35:03.326Z,1012.65
2017-02-01T04:36:13.191Z,1012.67
2017-02-01T04:37:23.811Z,1012.68
2017-02-01T04:38:34.088Z,1012.69
2017-02-01T04:39:44.720Z,1012.67
2017-02-01T04:40:54.435Z,1012.7
2017-02-01T04:42:04.683Z,1012.66
2017-02-01T04:43:14.924Z,1012.65
2017-02-01T04:44:25.164Z,1012.67
2017-02-01T04:45:35.797Z,1012.66
2017-02-01T04:46:46.697Z,1012.69
2017-02-01T04:47:57.361Z,1012.71
2017-02-01T04:49:07.602Z,1012.74
2017-02-01T04:50:18.240Z,1012.7
2017-02-01T04:51:28.484Z,1012.74
2017-02-01T04:52:39.372Z,1012.66
2017-02-01T04:53:50.007Z,1012.67
2017-02-01T04:55:00.270Z,1012.64
2017-02-01T04:56:10.134Z,1012.65
2017-02-01T04:57:20.374Z,1012.64
2017-02-01T04:58:30.476Z,1012.65
2017-02-01T04:59:40.724Z,1012.65
2017-02-01T05:00:50.965Z,1012.64
2017-02-01T05:02:01.605Z,1012.68
2017-02-01T05:03:12.249Z,1012.69
2017-02-01T05:04:23.223Z,1012.68
2017-02-01T05:05:33.350Z,1012.68
2017-02-01T05:06:42.809Z,1012.63
2017-02-01T05:07:53.060Z,1012.64
2017-02-01T05:09:03.700Z,1012.59
2017-02-01T05:10:14.196Z,1012.61
2017-02-01T05:11:24.430Z,1012.56
2017-02-01T05:12:34.673Z,1012.54
2017-02-01T05:13:44.915Z,1012.54
2017-02-01T05:14:55.549Z,1012.55
2017-02-01T05:16:06.039Z,1012.56
2017-02-01T05:17:16.687Z,1012.56
2017-02-01T05:18:27.320Z,1012.54
2017-02-01T05:19:37.956Z,1012.58
2017-02-01T05:20:48.208Z,1012.55
2017-02-01T05:21:58.699Z,1012.53
2017-02-01T05:23:09.324Z,1012.52
2017-02-01T05:24:19.571Z,1012.52
2017-02-01T05:25:29.836Z,1012.5
2017-02-01T05:26:40.475Z,1012.52
2017-02-01T05:27:50.965Z,1012.54
2017-02-01T05:29:00.820Z,1012.52
2017-02-01T05:30:10.656Z,1012.55
2017-02-01T05:31:21.311Z,1012.54
2017-02-01T05:32:30.773Z,1012.55
2017-02-01T05:33:41.317Z,1012.51
2017-02-01T05:34:50.387Z,1012.56
2017-02-01T05:36:01.029Z,1012.54
2017-02-01T05:37:11.276Z,1012.56
2017-02-01T05:38:21.138Z,1012.54
2017-02-01T05:39:31.254Z,1012.55
2017-02-01T05:40:41.521Z,1012.59
2017-02-01T05:41:51.795Z,1012.58
2017-02-01T05:43:02.082Z,1012.53
2017-02-01T05:44:12.327Z,1012.49
2017-02-01T05:45:23.230Z,1012.52
2017-02-01T05:46:33.469Z,1012.5
2017-02-01T05:47:43.716Z,1012.52
2017-02-01T05:48:53.959Z,1012.5
2017-02-01T05:50:04.202Z,1012.5
2017-02-01T05:51:14.310Z,1012.47
2017-02-01T05:52:24.939Z,1012.5
2017-02-01T05:53:35.189Z,1012.54
2017-02-01T05:54:45.058Z,1012.52
2017-02-01T05:55:55.711Z,1012.52
2017-02-01T05:57:06.212Z,1012.48
2017-02-01T05:58:16.851Z,1012.48
2017-02-01T05:59:27.088Z,1012.51
2017-02-01T06:00:37.335Z,1012.51
2017-02-01T06:01:47.980Z,1012.51
2017-02-01T06:02:58.859Z,1012.51
2017-02-01T06:04:09.129Z,1012.51
2017-02-01T06:05:19.754Z,1012.54
2017-02-01T06:06:30.002Z,1012.54
2017-02-01T06:07:40.262Z,1012.53
2017-02-01T06:08:50.753Z,1012.56
2017-02-01T06:10:01.387Z,1012.48
2017-02-01T06:11:11.266Z,1012.55
2017-02-01T06:12:21.531Z,1012.53
2017-02-01T06:13:31.780Z,1012.52
2017-02-01T06:14:42.680Z,1012.53
2017-02-01T06:15:52.153Z,1012.57
2017-02-01T06:17:02.680Z,1012.58
2017-02-01T06:18:13.312Z,1012.57
2017-02-01T06:19:23.971Z,1012.62
2017-02-01T06:20:34.110Z,1012.6
2017-02-01T06:21:44.747Z,1012.62
2017-02-01T06:22:55.387Z,1012.6
2017-02-01T06:24:06.018Z,1012.63
2017-02-01T06:25:15.556Z,1012.67
2017-02-01T06:26:26.441Z,1012.68
2017-02-01T06:27:36.707Z,1012.65
2017-02-01T06:28:47.340Z,1012.7
2017-02-01T06:29:57.983Z,1012.73
2017-02-01T06:31:07.850Z,1012.71
2017-02-01T06:32:18.778Z,1012.73
2017-02-01T06:33:29.056Z,1012.71
2017-02-01T06:34:39.301Z,1012.72
2017-02-01T06:35:49.547Z,1012.7
2017-02-01T06:36:59.410Z,1012.68
2017-02-01T06:38:09.911Z,1012.65
2017-02-01T06:39:20.566Z,1012.63
2017-02-01T06:40:31.196Z,1012.65
2017-02-01T06:41:41.853Z,1012.64
2017-02-01T06:42:51.769Z,1012.62
2017-02-01T06:44:02.668Z,1012.64
2017-02-01T06:45:13.308Z,1012.65
2017-02-01T06:46:23.556Z,1012.61
2017-02-01T06:47:34.187Z,1012.56
2017-02-01T06:48:44.439Z,1012.58
2017-02-01T06:49:54.939Z,1012.6
2017-02-01T06:51:04.791Z,1012.64
2017-02-01T06:52:15.424Z,1012.6
2017-02-01T06:53:24.894Z,1012.61
2017-02-01T06:54:35.287Z,1012.6
2017-02-01T06:55:45.782Z,1012.62
2017-02-01T06:56:56.415Z,1012.67
2017-02-01T06:58:06.668Z,1012.69
2017-02-01T06:59:17.523Z,1012.69
2017-02-01T07:00:28.158Z,1012.7
2017-02-01T07:01:38.794Z,1012.68
2017-02-01T07:02:48.701Z,1012.69
2017-02-01T07:03:58.960Z,1012.7
2017-02-01T07:05:09.602Z,1012.73
2017-02-01T07:06:19.853Z,1012.6
2017-02-01T07:07:30.377Z,1012.7
2017-02-01T07:08:41.016Z,1012.7
2017-02-01T07:09:51.263Z,1012.71
2017-02-01T07:11:01.917Z,1012.76
2017-02-01T07:12:12.562Z,1012.74
2017-02-01T07:13:23.072Z,1012.67
2017-02-01T07:14:32.935Z,1012.72
2017-02-01T07:15:43.615Z,1012.68
2017-02-01T07:16:54.270Z,1012.73
2017-02-01T07:18:03.753Z,1012.7
2017-02-01T07:19:13.890Z,1012.68
2017-02-01T07:20:24.143Z,1012.62
2017-02-01T07:21:34.768Z,1012.7
2017-02-01T07:22:44.247Z,1012.66
2017-02-01T07:23:54.936Z,1012.65
2017-02-01T07:25:05.459Z,1012.72
2017-02-01T07:26:16.105Z,1012.7
2017-02-01T07:27:26.746Z,1012.75
2017-02-01T07:28:37.405Z,1012.76
2017-02-01T07:29:48.067Z,1012.74
2017-02-01T07:30:58.083Z,1012.81
2017-02-01T07:32:08.341Z,1012.76
2017-02-01T07:33:18.213Z,1012.74
2017-02-01T07:34:28.862Z,1012.68
2017-02-01T07:35:39.505Z,1012.73
2017-02-01T07:36:50.486Z,1012.75
2017-02-01T07:38:00.765Z,1012.72
2017-02-01T07:39:11.426Z,1012.74
2017-02-01T07:40:21.665Z,1012.75
2017-02-01T07:41:31.936Z,1012.82
2017-02-01T07:42:42.819Z,1012.79
2017-02-01T07:43:53.777Z,1012.75
2017-02-01T07:45:04.494Z,1012.77
2017-02-01T07:46:14.458Z,1012.85
2017-02-01T07:47:25.278Z,1012.86
2017-02-01T07:48:36.174Z,1012.84
2017-02-01T07:49:46.421Z,1012.84
2017-02-01T07:50:56.957Z,1012.83
2017-02-01T07:52:07.598Z,1012.83
2017-02-01T07:53:18.251Z,1012.83
2017-02-01T07:54:28.753Z,1012.85
2017-02-01T07:55:38.625Z,1012.91
2017-02-01T07:56:48.913Z,1012.9
2017-02-01T07:57:58.408Z,1012.88
2017-02-01T07:59:09.049Z,1012.92
2017-02-01T08:00:19.946Z,1012.9
2017-02-01T08:01:30.579Z,1012.9
2017-02-01T08:02:40.828Z,1012.91
2017-02-01T08:03:51.472Z,1012.93
2017-02-01T08:05:01.362Z,1012.93
2017-02-01T08:06:11.863Z,1012.93
2017-02-01T08:07:22.124Z,1012.94
2017-02-01T08:08:32.777Z,1013.01
2017-02-01T08:09:42.720Z,1012.98
2017-02-01T08:10:53.367Z,1012.99
2017-02-01T08:12:04.275Z,1013
2017-02-01T08:13:14.544Z,1012.98
2017-02-01T08:14:24.910Z,1013.07
2017-02-01T08:15:35.541Z,1013.05
2017-02-01T08:16:45.789Z,1012.98
2017-02-01T08:17:56.672Z,1012.99
2017-02-01T08:19:06.919Z,1013.05
2017-02-01T08:20:17.170Z,1013
2017-02-01T08:21:27.825Z,1013.01
2017-02-01T08:22:38.075Z,1012.93
2017-02-01T08:23:48.234Z,1012.96
2017-02-01T08:24:58.097Z,1012.92
2017-02-01T08:26:07.555Z,1012.94
2017-02-01T08:27:17.812Z,1012.94
2017-02-01T08:28:28.446Z,1013.02
2017-02-01T08:29:38.952Z,1012.95
2017-02-01T08:30:48.819Z,1012.95
2017-02-01T08:31:59.135Z,1012.94
2017-02-01T08:33:09.387Z,1012.87
2017-02-01T08:34:19.248Z,1012.87
2017-02-01T08:35:29.746Z,1012.89
2017-02-01T08:36:40.384Z,1012.91
2017-02-01T08:37:50.663Z,1012.88
2017-02-01T08:39:00.268Z,1012.89
2017-02-01T08:40:10.535Z,1012.82
2017-02-01T08:41:21.033Z,1012.85
2017-02-01T08:42:31.283Z,1012.9
2017-02-01T08:43:41.962Z,1012.78
2017-02-01T08:44:52.227Z,1012.86
2017-02-01T08:46:02.090Z,1012.77
2017-02-01T08:47:12.999Z,1012.77
2017-02-01T08:48:23.657Z,1012.75
2017-02-01T08:49:33.926Z,1012.81
2017-02-01T08:50:43.822Z,1012.78
2017-02-01T08:51:54.461Z,1012.76
2017-02-01T08:53:04.864Z,1012.77
2017-02-01T08:54:15.126Z,1012.75
2017-02-01T08:55:25.384Z,1012.76
2017-02-01T08:56:35.235Z,1012.72
2017-02-01T08:57:45.092Z,1012.67
2017-02-01T08:58:55.218Z,1012.71
2017-02-01T09:00:05.472Z,1012.72
2017-02-01T09:01:15.348Z,1012.73
2017-02-01T09:02:26.007Z,1012.71
2017-02-01T09:03:35.912Z,1012.67
2017-02-01T09:04:46.808Z,1012.68
2017-02-01T09:05:57.460Z,1012.66
2017-02-01T09:07:07.714Z,1012.68
2017-02-01T09:08:17.860Z,1012.69
2017-02-01T09:09:28.491Z,1012.69
2017-02-01T09:10:39.005Z,1012.66
2017-02-01T09:11:49.644Z,1012.67
2017-02-01T09:13:00.450Z,1012.69
2017-02-01T09:14:10.317Z,1012.68
2017-02-01T09:15:19.788Z,1012.71
2017-02-01T09:16:30.704Z,1012.7
2017-02-01T09:17:40.565Z,1012.75
2017-02-01T09:18:51.199Z,1012.65
2017-02-01T09:20:01.840Z,1012.67
2017-02-01T09:21:12.481Z,1012.78
2017-02-01T09:22:22.982Z,1012.75
2017-02-01T09:23:33.648Z,1012.7
2017-02-01T09:24:43.911Z,1012.67
2017-02-01T09:25:54.549Z,1012.68
2017-02-01T09:27:05.192Z,1012.66
2017-02-01T09:28:15.698Z,1012.71
2017-02-01T09:29:25.576Z,1012.69
2017-02-01T09:30:36.227Z,1012.73
2017-02-01T09:31:46.475Z,1012.67
2017-02-01T09:32:56.725Z,1012.73
2017-02-01T09:34:07.231Z,1012.7
2017-02-01T09:35:17.478Z,1012.71
2017-02-01T09:36:28.123Z,1012.68
2017-02-01T09:37:38.363Z,1012.68
2017-02-01T09:38:48.229Z,1012.67
2017-02-01T09:39:59.130Z,1012.7
2017-02-01T09:41:09.802Z,1012.7
2017-02-01T09:42:19.660Z,1012.76
2017-02-01T09:43:29.947Z,1012.7
2017-02-01T09:44:40.203Z,1012.7
2017-02-01T09:45:50.324Z,1012.69
2017-02-01T09:47:00.574Z,1012.62
2017-02-01T09:48:10.831Z,1012.62
2017-02-01T09:49:20.689Z,1012.72
2017-02-01T09:50:31.331Z,1012.68
2017-02-01T09:51:41.824Z,1012.72
2017-02-01T09:52:52.496Z,1012.7
2017-02-01T09:54:02.762Z,1012.66
2017-02-01T09:55:12.623Z,1012.71
2017-02-01T09:56:22.489Z,1012.67
2017-02-01T09:57:32.996Z,1012.63
2017-02-01T09:58:43.661Z,1012.7
2017-02-01T09:59:54.304Z,1012.66
2017-02-01T10:01:04.961Z,1012.63
2017-02-01T10:02:15.224Z,1012.62
2017-02-01T10:03:25.230Z,1012.68
2017-02-01T10:04:35.090Z,1012.62
2017-02-01T10:05:45.334Z,1012.6
2017-02-01T10:06:55.584Z,1012.53
2017-02-01T10:08:05.894Z,1012.53
2017-02-01T10:09:16.407Z,1012.52
2017-02-01T10:10:26.670Z,1012.59
2017-02-01T10:11:36.928Z,1012.54
2017-02-01T10:12:47.187Z,1012.53
2017-02-01T10:13:57.421Z,1012.55
2017-02-01T10:15:07.934Z,1012.58
2017-02-01T10:16:18.182Z,1012.6
2017-02-01T10:17:28.426Z,1012.55
2017-02-01T10:18:38.675Z,1012.55
2017-02-01T10:19:49.315Z,1012.56
2017-02-01T10:21:00.205Z,1012.66
2017-02-01T10:22:10.489Z,1012.46
2017-02-01T10:23:21.145Z,1012.47
2017-02-01T10:24:31.785Z,1012.54
2017-02-01T10:25:42.036Z,1012.54
2017-02-01T10:26:52.526Z,1012.54
2017-02-01T10:28:02.755Z,1012.56
2017-02-01T10:29:12.254Z,1012.57
2017-02-01T10:30:22.499Z,1012.53
2017-02-01T10:31:33.137Z,1012.56
2017-02-01T10:32:43.660Z,1012.56
2017-02-01T10:33:53.906Z,1012.53
2017-02-01T10:35:04.174Z,1012.45
2017-02-01T10:36:14.436Z,1012.48
2017-02-01T10:37:25.087Z,1012.46
2017-02-01T10:38:35.598Z,1012.45
2017-02-01T10:39:45.843Z,1012.45
2017-02-01T10:40:56.487Z,1012.42
2017-02-01T10:42:06.347Z,1012.43
2017-02-01T10:43:16.622Z,1012.45
2017-02-01T10:44:26.738Z,1012.38
2017-02-01T10:45:37.374Z,1012.4
2017-02-01T10:46:47.227Z,1012.41
2017-02-01T10:47:57.464Z,1012.37
2017-02-01T10:49:08.156Z,1012.36
2017-02-01T10:50:19.042Z,1012.31
2017-02-01T10:51:29.746Z,1012.31
2017-02-01T10:52:40.391Z,1012.26
2017-02-01T10:53:50.640Z,1012.25
2017-02-01T10:55:00.899Z,1012.22
2017-02-01T10:56:11.024Z,1012.17
2017-02-01T10:57:21.331Z,1012.16
2017-02-01T10:58:31.602Z,1012.09
2017-02-01T10:59:41.864Z,1012.09
2017-02-01T11:00:52.132Z,1012.05
2017-02-01T11:02:01.763Z,1012.02
2017-02-01T11:03:12.023Z,1012.05
2017-02-01T11:04:22.278Z,1012
2017-02-01T11:05:32.915Z,1011.97
2017-02-01T11:06:43.555Z,1011.96
2017-02-01T11:07:54.451Z,1011.95
2017-02-01T11:09:04.317Z,1011.93
2017-02-01T11:10:14.956Z,1011.91
2017-02-01T11:11:25.588Z,1011.85
2017-02-01T11:12:35.441Z,1011.84
2017-02-01T11:13:46.315Z,1011.75
2017-02-01T11:14:56.569Z,1011.77
2017-02-01T11:16:07.222Z,1011.74
2017-02-01T11:17:17.082Z,1011.69
2017-02-01T11:18:27.784Z,1011.65
2017-02-01T11:19:38.720Z,1011.63
2017-02-01T11:20:49.396Z,1011.7
2017-02-01T11:22:00.037Z,1011.66
2017-02-01T11:23:10.695Z,1011.69
2017-02-01T11:24:20.942Z,1011.69
2017-02-01T11:25:30.916Z,1011.64
2017-02-01T11:26:41.572Z,1011.66
2017-02-01T11:27:52.213Z,1011.65
2017-02-01T11:29:02.484Z,1011.62
2017-02-01T11:30:11.961Z,1011.56
2017-02-01T11:31:22.477Z,1011.61
2017-02-01T11:32:32.727Z,1011.63
2017-02-01T11:33:42.971Z,1011.5
2017-02-01T11:34:53.221Z,1011.55
2017-02-01T11:36:03.864Z,1011.49
2017-02-01T11:37:14.372Z,1011.47
2017-02-01T11:38:25.007Z,1011.52
2017-02-01T11:39:35.659Z,1011.47
2017-02-01T11:40:46.334Z,1011.43
2017-02-01T11:41:56.585Z,1011.42
2017-02-01T11:43:07.097Z,1011.43
2017-02-01T11:44:17.385Z,1011.3
2017-02-01T11:45:27.653Z,1011.37
2017-02-01T11:46:38.289Z,1011.36
2017-02-01T11:47:48.923Z,1011.32
2017-02-01T11:48:59.827Z,1011.25
2017-02-01T11:50:10.483Z,1011.27
2017-02-01T11:51:20.419Z,1011.24
2017-02-01T11:52:31.093Z,1011.22
2017-02-01T11:53:41.352Z,1011.24
2017-02-01T11:54:52.251Z,1011.21
2017-02-01T11:56:02.520Z,1011.1
2017-02-01T11:57:12.778Z,1011.18
2017-02-01T11:58:23.423Z,1011.13
2017-02-01T11:59:33.311Z,1011.11
2017-02-01T12:00:43.855Z,1011.11
2017-02-01T12:01:54.164Z,1011.08
2017-02-01T12:03:04.035Z,1011.08
2017-02-01T12:04:14.293Z,1011.01
2017-02-01T12:05:24.935Z,1011.07
2017-02-01T12:06:35.431Z,1011.03
2017-02-01T12:07:46.074Z,1010.99
2017-02-01T12:08:56.739Z,1011.01
2017-02-01T12:10:06.608Z,1011.03
2017-02-01T12:11:16.472Z,1011.04
2017-02-01T12:12:26.974Z,1010.96
2017-02-01T12:13:37.239Z,1010.97
2017-02-01T12:14:47.489Z,1010.95
2017-02-01T12:15:57.359Z,1010.99
2017-02-01T12:17:07.645Z,1010.93
2017-02-01T12:18:17.372Z,1010.99
2017-02-01T12:19:27.852Z,1010.96
2017-02-01T12:20:38.111Z,1010.92
2017-02-01T12:21:48.757Z,1010.93
2017-02-01T12:22:57.866Z,1010.9
2017-02-01T12:24:08.831Z,1010.87
2017-02-01T12:25:19.089Z,1010.87
2017-02-01T12:26:28.951Z,1010.87
2017-02-01T12:27:39.602Z,1010.78
2017-02-01T12:28:49.871Z,1010.8
2017-02-01T12:30:00.011Z,1010.73
2017-02-01T12:31:10.287Z,1010.84
2017-02-01T12:32:20.547Z,1010.78
2017-02-01T12:33:31.201Z,1010.73
2017-02-01T12:34:41.857Z,1010.73
2017-02-01T12:35:52.766Z,1010.7
2017-02-01T12:37:03.417Z,1010.74
2017-02-01T12:38:13.669Z,1010.67
2017-02-01T12:39:24.303Z,1010.66
2017-02-01T12:40:34.543Z,1010.62
2017-02-01T12:41:45.044Z,1010.58
2017-02-01T12:42:55.306Z,1010.6
2017-02-01T12:44:05.557Z,1010.56
2017-02-01T12:45:15.811Z,1010.53
2017-02-01T12:46:26.073Z,1010.49
2017-02-01T12:47:36.217Z,1010.44
2017-02-01T12:48:46.874Z,1010.41
2017-02-01T12:49:56.788Z,1010.38
2017-02-01T12:51:07.489Z,1010.4
2017-02-01T12:52:17.404Z,1010.38
2017-02-01T12:53:27.921Z,1010.36
2017-02-01T12:54:38.295Z,1010.34
2017-02-01T12:55:48.565Z,1010.33
2017-02-01T12:56:59.218Z,1010.31
2017-02-01T12:58:09.481Z,1010.3
2017-02-01T12:59:20.395Z,1010.23
2017-02-01T13:00:31.042Z,1010.22
2017-02-01T13:01:40.748Z,1010.16
2017-02-01T13:02:51.019Z,1010.2
2017-02-01T13:04:00.603Z,1010.16
2017-02-01T13:05:10.918Z,1010.18
2017-02-01T13:06:21.576Z,1010.11
2017-02-01T13:07:31.839Z,1010.11
2017-02-01T13:08:41.372Z,1010.05
2017-02-01T13:09:52.110Z,1010.02
2017-02-01T13:11:03.127Z,1010.02
2017-02-01T13:12:13.012Z,1010
2017-02-01T13:13:22.892Z,1009.96
2017-02-01T13:14:33.527Z,1009.92
2017-02-01T13:15:44.167Z,1009.98
2017-02-01T13:16:55.051Z,1009.85
2017-02-01T13:18:05.723Z,1009.91
2017-02-01T13:19:15.666Z,1009.92
2017-02-01T13:20:25.992Z,1009.88
2017-02-01T13:21:35.866Z,1009.9
2017-02-01T13:22:46.450Z,1009.85
2017-02-01T13:23:56.380Z,1009.82
2017-02-01T13:25:07.080Z,1009.82
2017-02-01T13:26:17.153Z,1009.77
2017-02-01T13:27:27.445Z,1009.82
2017-02-01T13:28:38.397Z,1009.8
2017-02-01T13:29:49.089Z,1009.76
2017-02-01T13:30:59.424Z,1009.81
2017-02-01T13:32:09.295Z,1009.8
2017-02-01T13:33:19.216Z,1009.74
2017-02-01T13:34:29.610Z,1009.75
2017-02-01T13:35:40.263Z,1009.76
2017-02-01T13:36:50.222Z,1009.78
2017-02-01T13:38:00.491Z,1009.76
2017-02-01T13:39:11.331Z,1009.79
2017-02-01T13:40:21.525Z,1009.8
2017-02-01T13:41:31.835Z,1009.7
2017-02-01T13:42:41.694Z,1009.76
2017-02-01T13:43:51.937Z,1009.77
2017-02-01T13:45:02.197Z,1009.77
2017-02-01T13:46:12.726Z,1009.74
2017-02-01T13:47:23.005Z,1009.74
2017-02-01T13:48:33.270Z,1009.76
2017-02-01T13:49:43.561Z,1009.78
2017-02-01T13:50:53.808Z,1009.72
2017-02-01T13:52:04.320Z,1009.72
2017-02-01T13:53:14.571Z,1009.7
2017-02-01T13:54:25.218Z,1009.75
2017-02-01T13:55:35.486Z,1009.72
2017-02-01T13:56:45.358Z,1009.7
2017-02-01T13:57:55.881Z,1009.72
2017-02-01T13:59:06.130Z,1009.69
2017-02-01T14:00:16.389Z,1009.68
2017-02-01T14:01:26.649Z,1009.67
2017-02-01T14:02:36.511Z,1009.62
2017-02-01T14:03:47.070Z,1009.6
2017-02-01T14:04:57.720Z,1009.64
2017-02-01T14:06:08.367Z,1009.62
2017-02-01T14:07:18.631Z,1009.57
2017-02-01T14:08:28.119Z,1009.59
2017-02-01T14:09:38.652Z,1009.58
2017-02-01T14:10:49.296Z,1009.58
2017-02-01T14:11:59.933Z,1009.57
2017-02-01T14:13:10.181Z,1009.55
2017-02-01T14:14:20.852Z,1009.56